Wetterstation Vordersexau
Wetterdaten: Woche 18.07.16 - 24.07.16 (KW29)
Datum Zeit Temp. A. Feuchte A. Luftdruck Regen Wind Richtung Taupunkt Windchill Windben
18.07.2016 00:00 16,9 C 79 % 1019,0 hPa 0,0 l/m 0,0 km/h SO 13,2 C 16,9 C 0,0 km/h
18.07.2016 01:00 16,4 C 81 % 1019,3 hPa 0,0 l/m 0,0 km/h SO 13,1 C 16,4 C 0,0 km/h
18.07.2016 02:00 15,9 C 82 % 1019,2 hPa 0,0 l/m 9,1 km/h NO 12,8 C 14,5 C 5,0 km/h
18.07.2016 03:00 15,8 C 82 % 1018,8 hPa 0,0 l/m 0,0 km/h O-SO 12,7 C 15,8 C 0,0 km/h
18.07.2016 04:00 15,1 C 83 % 1018,8 hPa 0,0 l/m 0,0 km/h O 12,2 C 15,1 C 0,0 km/h
18.07.2016 05:00 14,9 C 83 % 1019,1 hPa 0,0 l/m 0,0 km/h O 12,0 C 14,9 C 0,0 km/h
18.07.2016 06:00 15,3 C 84 % 1019,6 hPa 0,0 l/m 0,0 km/h SO 12,6 C 15,3 C 0,0 km/h
18.07.2016 07:00 22,9 C 80 % 1019,3 hPa 0,0 l/m 0,0 km/h N-NO 19,3 C 22,9 C 0,0 km/h
18.07.2016 08:00 28,8 C 54 % 1019,5 hPa 0,0 l/m 0,0 km/h W 18,5 C 28,8 C 0,0 km/h
18.07.2016 09:00 29,8 C 51 % 1019,4 hPa 0,0 l/m 0,0 km/h W 18,5 C 29,8 C 0,0 km/h
18.07.2016 10:00 29,6 C 51 % 1019,5 hPa 0,0 l/m 1,3 km/h NW 18,4 C 29,6 C 0,7 km/h
18.07.2016 11:00 29,9 C 52 % 1019,4 hPa 0,0 l/m 0,0 km/h SW 19,0 C 29,9 C 0,0 km/h
18.07.2016 12:00 30,3 C 50 % 1019,0 hPa 0,0 l/m 4,5 km/h N-NO 18,7 C 30,3 C 2,5 km/h
18.07.2016 13:00 31,4 C 45 % 1018,6 hPa 0,0 l/m 2,6 km/h W-NW 18,0 C 31,4 C 1,4 km/h
18.07.2016 14:00 32,4 C 43 % 1018,4 hPa 0,0 l/m 0,0 km/h NW 18,2 C 32,4 C 0,0 km/h
18.07.2016 15:00 32,6 C 40 % 1017,9 hPa 0,0 l/m 0,0 km/h N-NO 17,2 C 32,6 C 0,0 km/h
18.07.2016 16:00 35,4 C 38 % 1017,6 hPa 0,0 l/m 14,3 km/h N-NO 18,9 C 35,4 C 7,9 km/h
18.07.2016 17:00 38,8 C 33 % 1017,5 hPa 0,0 l/m 4,5 km/h N 19,6 C 38,8 C 2,5 km/h
18.07.2016 18:00 36,9 C 34 % 1017,3 hPa 0,0 l/m 5,2 km/h N-NO 18,4 C 36,9 C 2,9 km/h
18.07.2016 19:00 28,7 C 47 % 1017,4 hPa 0,0 l/m 0,0 km/h N-NO 16,3 C 28,7 C 0,0 km/h
18.07.2016 20:00 24,3 C 58 % 1017,5 hPa 0,0 l/m 0,0 km/h O-NO 15,5 C 24,3 C 0,0 km/h
18.07.2016 21:00 21,2 C 69 % 1018,1 hPa 0,0 l/m 0,0 km/h O-SO 15,3 C 21,2 C 0,0 km/h
18.07.2016 22:00 19,3 C 74 % 1018,3 hPa 0,0 l/m 0,0 km/h O-SO 14,5 C 19,3 C 0,0 km/h
18.07.2016 23:00 18,9 C 77 % 1018,4 hPa 0,0 l/m 0,0 km/h O-SO 14,8 C 18,9 C 0,0 km/h
19.07.2016 00:00 17,9 C 79 % 1018,4 hPa 0,0 l/m 0,0 km/h O-SO 14,2 C 17,9 C 0,0 km/h
19.07.2016 01:00 17,8 C 81 % 1018,3 hPa 0,0 l/m 1,9 km/h O-NO 14,5 C 17,8 C 1,1 km/h
19.07.2016 02:00 17,1 C 81 % 1018,2 hPa 0,0 l/m 0,0 km/h NO 13,8 C 17,1 C 0,0 km/h
19.07.2016 03:00 16,7 C 81 % 1018,1 hPa 0,0 l/m 0,0 km/h NO 13,4 C 16,7 C 0,0 km/h
19.07.2016 04:00 15,8 C 83 % 1018,0 hPa 0,0 l/m 0,0 km/h O-NO 12,9 C 15,8 C 0,0 km/h
19.07.2016 05:00 15,3 C 84 % 1018,2 hPa 0,0 l/m 0,0 km/h O-NO 12,6 C 15,3 C 0,0 km/h
19.07.2016 06:00 16,2 C 84 % 1018,2 hPa 0,0 l/m 0,0 km/h O-NO 13,5 C 16,2 C 0,0 km/h
19.07.2016 07:00 23,9 C 79 % 1018,4 hPa 0,0 l/m 0,0 km/h NW 20,0 C 23,9 C 0,0 km/h
19.07.2016 08:00 28,4 C 58 % 1018,3 hPa 0,0 l/m 0,0 km/h W-NW 19,3 C 28,4 C 0,0 km/h
19.07.2016 09:00 30,5 C 50 % 1018,3 hPa 0,0 l/m 0,6 km/h N 18,9 C 30,5 C 0,4 km/h
19.07.2016 10:00 30,3 C 50 % 1018,3 hPa 0,0 l/m 0,0 km/h W 18,7 C 30,3 C 0,0 km/h
19.07.2016 11:00 30,6 C 52 % 1017,9 hPa 0,0 l/m 7,8 km/h W-NW 19,6 C 30,5 C 4,3 km/h
19.07.2016 12:00 31,1 C 52 % 1017,4 hPa 0,0 l/m 0,0 km/h W-NW 20,1 C 31,1 C 0,0 km/h
19.07.2016 13:00 32,8 C 51 % 1016,7 hPa 0,0 l/m 2,6 km/h W-NW 21,3 C 32,8 C 1,4 km/h
19.07.2016 14:00 33,9 C 46 % 1016,3 hPa 0,0 l/m 0,0 km/h W-NW 20,6 C 33,9 C 0,0 km/h
19.07.2016 15:00 34,7 C 45 % 1015,9 hPa 0,0 l/m 0,0 km/h W-NW 21,0 C 34,7 C 0,0 km/h
19.07.2016 16:00 36,5 C 41 % 1015,4 hPa 0,0 l/m 0,0 km/h W-NW 21,1 C 36,5 C 0,0 km/h
19.07.2016 17:00 38,6 C 36 % 1015,2 hPa 0,0 l/m 0,0 km/h NW 20,8 C 38,6 C 0,0 km/h
19.07.2016 18:00 38,5 C 35 % 1014,4 hPa 0,0 l/m 6,5 km/h N-NO 20,3 C 38,5 C 3,6 km/h
19.07.2016 19:00 31,2 C 46 % 1014,4 hPa 0,0 l/m 0,0 km/h N 18,2 C 31,2 C 0,0 km/h
19.07.2016 20:00 27,3 C 59 % 1014,4 hPa 0,0 l/m 0,0 km/h N 18,6 C 27,3 C 0,0 km/h
19.07.2016 21:00 23,4 C 72 % 1014,9 hPa 0,0 l/m 0,0 km/h N 18,1 C 23,4 C 0,0 km/h
19.07.2016 22:00 21,9 C 75 % 1015,0 hPa 0,0 l/m 0,0 km/h N 17,3 C 21,9 C 0,0 km/h
19.07.2016 23:00 20,9 C 78 % 1014,8 hPa 0,0 l/m 0,0 km/h N 16,9 C 20,9 C 0,0 km/h
20.07.2016 00:00 19,8 C 81 % 1014,8 hPa 0,0 l/m 0,0 km/h N-NO 16,4 C 19,8 C 0,0 km/h
20.07.2016 01:00 19,3 C 82 % 1014,8 hPa 0,0 l/m 0,0 km/h N 16,1 C 19,3 C 0,0 km/h
20.07.2016 02:00 18,3 C 83 % 1014,8 hPa 0,0 l/m 0,0 km/h O-NO 15,4 C 18,3 C 0,0 km/h
20.07.2016 03:00 17,6 C 83 % 1014,7 hPa 0,0 l/m 0,0 km/h O-NO 14,7 C 17,6 C 0,0 km/h
20.07.2016 04:00 16,7 C 84 % 1014,2 hPa 0,0 l/m 0,0 km/h O-NO 14,0 C 16,7 C 0,0 km/h
20.07.2016 05:00 16,3 C 84 % 1014,2 hPa 0,0 l/m 0,0 km/h O-NO 13,6 C 16,3 C 0,0 km/h
20.07.2016 06:00 16,4 C 83 % 1014,3 hPa 0,0 l/m 0,0 km/h W-NW 13,5 C 16,4 C 0,0 km/h
20.07.2016 07:00 24,4 C 77 % 1014,3 hPa 0,0 l/m 0,0 km/h NW 20,1 C 24,4 C 0,0 km/h
20.07.2016 08:00 31,1 C 52 % 1014,3 hPa 0,0 l/m 0,0 km/h O 20,1 C 31,1 C 0,0 km/h
20.07.2016 09:00 34,1 C 46 % 1013,7 hPa 0,0 l/m 0,0 km/h W-NW 20,8 C 34,1 C 0,0 km/h
20.07.2016 10:00 32,9 C 47 % 1013,4 hPa 0,0 l/m 2,6 km/h W 20,1 C 32,9 C 1,4 km/h
20.07.2016 11:00 33,7 C 45 % 1012,9 hPa 0,0 l/m 0,0 km/h W 20,1 C 33,7 C 0,0 km/h
20.07.2016 12:00 34,1 C 44 % 1012,4 hPa 0,0 l/m 0,0 km/h W 20,1 C 34,1 C 0,0 km/h
20.07.2016 13:00 35,6 C 39 % 1012,2 hPa 0,0 l/m 5,2 km/h SW 19,5 C 35,6 C 2,9 km/h
20.07.2016 14:00 36,5 C 36 % 1012,0 hPa 0,0 l/m 9,1 km/h W-SW 19,0 C 36,5 C 5,0 km/h
20.07.2016 15:00 36,9 C 34 % 1011,4 hPa 0,0 l/m 0,0 km/h W 18,4 C 36,9 C 0,0 km/h
20.07.2016 16:00 39,1 C 26 % 1010,9 hPa 0,0 l/m 0,0 km/h W 16,0 C 39,1 C 0,0 km/h
20.07.2016 17:00 40,4 C 26 % 1010,7 hPa 0,0 l/m 13,0 km/h W 17,1 C 40,4 C 7,2 km/h
20.07.2016 18:00 39,8 C 28 % 1010,5 hPa 0,0 l/m 0,0 km/h N-NO 17,8 C 39,8 C 0,0 km/h
20.07.2016 19:00 29,5 C 51 % 1010,9 hPa 0,0 l/m 0,0 km/h NO 18,3 C 29,5 C 0,0 km/h
20.07.2016 20:00 26,9 C 58 % 1011,2 hPa 0,0 l/m 0,0 km/h O-SO 17,9 C 26,9 C 0,0 km/h
20.07.2016 21:00 24,8 C 64 % 1011,3 hPa 0,0 l/m 0,0 km/h O-SO 17,5 C 24,8 C 0,0 km/h
20.07.2016 22:00 24,1 C 66 % 1010,9 hPa 0,0 l/m 0,0 km/h O-NO 17,3 C 24,1 C 0,0 km/h
20.07.2016 23:00 22,4 C 71 % 1011,0 hPa 0,0 l/m 0,0 km/h O-NO 16,9 C 22,4 C 0,0 km/h
21.07.2016 00:00 21,0 C 73 % 1010,9 hPa 0,0 l/m 0,0 km/h O-NO 16,0 C 21,0 C 0,0 km/h
21.07.2016 01:00 21,3 C 77 % 1010,9 hPa 0,0 l/m 0,0 km/h S 17,1 C 21,3 C 0,0 km/h
21.07.2016 02:00 21,3 C 77 % 1012,1 hPa 0,0 l/m 0,0 km/h N 17,1 C 21,3 C 0,0 km/h
21.07.2016 03:00 20,8 C 80 % 1015,7 hPa 0,5 l/m 17,5 km/h O 17,2 C 17,7 C 9,7 km/h
21.07.2016 04:00 19,5 C 83 % 1013,8 hPa 1,6 l/m 0,0 km/h NO 16,5 C 19,5 C 0,0 km/h
21.07.2016 05:00 18,4 C 83 % 1013,5 hPa 0,0 l/m 0,0 km/h N-NO 15,5 C 18,4 C 0,0 km/h
21.07.2016 06:00 17,9 C 83 % 1014,0 hPa 0,0 l/m 0,0 km/h SO 15,0 C 17,9 C 0,0 km/h
21.07.2016 07:00 22,9 C 82 % 1014,1 hPa 0,0 l/m 0,0 km/h O-SO 19,7 C 22,9 C 0,0 km/h
21.07.2016 08:00 28,6 C 65 % 1014,2 hPa 0,0 l/m 0,0 km/h SW 21,4 C 28,6 C 0,0 km/h
21.07.2016 09:00 27,9 C 65 % 1014,0 hPa 0,0 l/m 0,0 km/h W-NW 20,7 C 27,9 C 0,0 km/h
21.07.2016 10:00 28,7 C 63 % 1014,1 hPa 0,0 l/m 0,0 km/h W-NW 20,9 C 28,7 C 0,0 km/h
21.07.2016 11:00 29,2 C 59 % 1014,4 hPa 0,0 l/m 0,0 km/h N 20,3 C 29,2 C 0,0 km/h
21.07.2016 12:00 30,3 C 55 % 1013,9 hPa 0,0 l/m 0,0 km/h O-SO 20,2 C 30,3 C 0,0 km/h
21.07.2016 13:00 31,1 C 48 % 1013,5 hPa 0,0 l/m 0,0 km/h N-NW 18,8 C 31,1 C 0,0 km/h
21.07.2016 14:00 31,9 C 43 % 1013,1 hPa 0,0 l/m 0,0 km/h W-NW 17,7 C 31,9 C 0,0 km/h
21.07.2016 15:00 32,9 C 44 % 1013,0 hPa 0,0 l/m 0,0 km/h W 19,0 C 32,9 C 0,0 km/h
21.07.2016 16:00 35,1 C 38 % 1012,7 hPa 0,0 l/m 3,9 km/h N-NO 18,6 C 35,1 C 2,2 km/h
21.07.2016 17:00 36,2 C 40 % 1012,7 hPa 0,0 l/m 17,5 km/h N-NO 20,4 C 36,2 C 9,7 km/h
21.07.2016 18:00 34,9 C 39 % 1012,3 hPa 0,0 l/m 0,6 km/h N 18,8 C 34,9 C 0,4 km/h
21.07.2016 19:00 28,5 C 50 % 1012,6 hPa 0,0 l/m 0,0 km/h N 17,0 C 28,5 C 0,0 km/h
21.07.2016 20:00 24,9 C 61 % 1013,1 hPa 0,0 l/m 0,0 km/h NO 16,8 C 24,9 C 0,0 km/h
21.07.2016 21:00 21,3 C 70 % 1013,1 hPa 0,0 l/m 0,0 km/h O-SO 15,6 C 21,3 C 0,0 km/h
21.07.2016 22:00 20,4 C 74 % 1013,0 hPa 0,0 l/m 0,0 km/h O 15,6 C 20,4 C 0,0 km/h
21.07.2016 23:00 19,6 C 77 % 1013,2 hPa 0,0 l/m 0,0 km/h O 15,5 C 19,6 C 0,0 km/h
22.07.2016 00:00 19,1 C 80 % 1013,4 hPa 0,0 l/m 0,0 km/h O 15,6 C 19,1 C 0,0 km/h
22.07.2016 01:00 18,6 C 81 % 1013,1 hPa 0,0 l/m 0,0 km/h SO 15,3 C 18,6 C 0,0 km/h
22.07.2016 02:00 18,2 C 80 % 1012,8 hPa 0,0 l/m 0,0 km/h NO 14,7 C 18,2 C 0,0 km/h
22.07.2016 03:00 17,3 C 81 % 1012,3 hPa 0,0 l/m 0,0 km/h SO 14,0 C 17,3 C 0,0 km/h
22.07.2016 04:00 16,7 C 83 % 1011,9 hPa 0,0 l/m 0,0 km/h O-SO 13,8 C 16,7 C 0,0 km/h
22.07.2016 05:00 16,9 C 84 % 1012,4 hPa 0,0 l/m 0,0 km/h O-SO 14,2 C 16,9 C 0,0 km/h
22.07.2016 06:00 17,3 C 83 % 1012,7 hPa 0,0 l/m 0,0 km/h O-NO 14,4 C 17,3 C 0,0 km/h
22.07.2016 07:00 19,4 C 83 % 1012,8 hPa 0,0 l/m 0,0 km/h O-SO 16,4 C 19,4 C 0,0 km/h
22.07.2016 08:00 24,4 C 74 % 1012,5 hPa 0,0 l/m 0,0 km/h NW 19,5 C 24,4 C 0,0 km/h
22.07.2016 09:00 29,9 C 55 % 1012,0 hPa 0,0 l/m 0,0 km/h W-NW 19,9 C 29,9 C 0,0 km/h
22.07.2016 10:00 31,8 C 46 % 1011,8 hPa 0,0 l/m 0,0 km/h SO 18,7 C 31,8 C 0,0 km/h
22.07.2016 11:00 29,6 C 51 % 1011,4 hPa 0,0 l/m 0,0 km/h W 18,4 C 29,6 C 0,0 km/h
22.07.2016 12:00 29,1 C 51 % 1011,5 hPa 0,0 l/m 6,5 km/h W 17,9 C 29,1 C 3,6 km/h
22.07.2016 13:00 27,9 C 59 % 1011,7 hPa 0,0 l/m 1,9 km/h W 19,1 C 27,9 C 1,1 km/h
22.07.2016 14:00 27,5 C 61 % 1011,7 hPa 0,0 l/m 7,8 km/h S-SO 19,3 C 27,3 C 4,3 km/h
22.07.2016 15:00 23,3 C 65 % 1013,1 hPa 0,0 l/m 20,1 km/h SO 16,3 C 20,5 C 11,2 km/h
22.07.2016 16:00 18,3 C 79 % 1014,3 hPa 0,5 l/m 4,5 km/h SO 14,6 C 18,3 C 2,5 km/h
22.07.2016 17:00 24,1 C 73 % 1013,1 hPa 5,2 l/m 0,0 km/h O-NO 18,9 C 24,1 C 0,0 km/h
22.07.2016 18:00 20,6 C 79 % 1013,6 hPa 0,0 l/m 0,0 km/h O-NO 16,8 C 20,6 C 0,0 km/h
22.07.2016 19:00 19,6 C 82 % 1013,9 hPa 0,0 l/m 0,0 km/h SO 16,4 C 19,6 C 0,0 km/h
22.07.2016 20:00 19,2 C 83 % 1013,8 hPa 0,0 l/m 0,0 km/h S-SO 16,2 C 19,2 C 0,0 km/h
22.07.2016 21:00 17,6 C 83 % 1013,9 hPa 0,0 l/m 0,0 km/h S-SO 14,7 C 17,6 C 0,0 km/h
22.07.2016 22:00 16,9 C 84 % 1014,4 hPa 0,0 l/m 0,0 km/h S-SO 14,2 C 16,9 C 0,0 km/h
22.07.2016 23:00 17,2 C 83 % 1014,6 hPa 0,0 l/m 0,0 km/h S-SO 14,3 C 17,2 C 0,0 km/h
23.07.2016 00:00 17,1 C 83 % 1014,3 hPa 0,0 l/m 0,0 km/h S-SO 14,2 C 17,1 C 0,0 km/h
23.07.2016 01:00 16,9 C 82 % 1014,4 hPa 0,0 l/m 0,0 km/h S-SO 13,8 C 16,9 C 0,0 km/h
23.07.2016 02:00 16,6 C 82 % 1014,1 hPa 0,0 l/m 0,0 km/h SO 13,5 C 16,6 C 0,0 km/h
23.07.2016 03:00 16,6 C 81 % 1014,1 hPa 0,0 l/m 0,0 km/h SO 13,3 C 16,6 C 0,0 km/h
23.07.2016 04:00 16,3 C 81 % 1014,0 hPa 0,0 l/m 0,0 km/h SO 13,0 C 16,3 C 0,0 km/h
23.07.2016 05:00 15,9 C 81 % 1014,2 hPa 0,0 l/m 0,0 km/h SO 12,6 C 15,9 C 0,0 km/h
23.07.2016 06:00 16,4 C 80 % 1014,3 hPa 0,0 l/m 0,0 km/h SO 12,9 C 16,4 C 0,0 km/h
23.07.2016 07:00 18,3 C 76 % 1014,3 hPa 0,0 l/m 0,0 km/h S 14,0 C 18,3 C 0,0 km/h
23.07.2016 08:00 25,7 C 71 % 1014,6 hPa 0,0 l/m 0,0 km/h W-NW 20,0 C 25,7 C 0,0 km/h
23.07.2016 09:00 24,5 C 68 % 1014,7 hPa 0,0 l/m 0,0 km/h W 18,2 C 24,5 C 0,0 km/h
23.07.2016 10:00 25,8 C 64 % 1015,3 hPa 0,0 l/m 0,0 km/h W 18,5 C 25,8 C 0,0 km/h
23.07.2016 11:00 25,1 C 69 % 1015,1 hPa 0,0 l/m 2,6 km/h S 19,0 C 25,1 C 1,4 km/h
23.07.2016 12:00 28,3 C 60 % 1014,8 hPa 0,0 l/m 5,8 km/h W-NW 19,8 C 28,3 C 3,2 km/h
23.07.2016 13:00 29,1 C 54 % 1014,8 hPa 0,0 l/m 17,5 km/h W 18,8 C 28,1 C 9,7 km/h
23.07.2016 14:00 29,9 C 51 % 1014,9 hPa 0,0 l/m 5,8 km/h W-NW 18,6 C 29,9 C 3,2 km/h
23.07.2016 15:00 27,9 C 57 % 1014,7 hPa 0,0 l/m 24,0 km/h W-NW 18,6 C 26,1 C 13,3 km/h
23.07.2016 16:00 31,2 C 50 % 1014,5 hPa 0,0 l/m 12,3 km/h W 19,5 C 30,9 C 6,8 km/h
23.07.2016 17:00 30,8 C 48 % 1014,6 hPa 0,0 l/m 0,0 km/h NW 18,5 C 30,8 C 0,0 km/h
23.07.2016 18:00 29,6 C 49 % 1014,8 hPa 0,0 l/m 0,0 km/h N 17,7 C 29,6 C 0,0 km/h
23.07.2016 19:00 25,5 C 58 % 1014,8 hPa 0,0 l/m 3,2 km/h N 16,6 C 25,5 C 1,8 km/h
23.07.2016 20:00 22,6 C 68 % 1015,2 hPa 0,0 l/m 0,0 km/h N 16,4 C 22,6 C 0,0 km/h
23.07.2016 21:00 20,9 C 75 % 1016,1 hPa 0,0 l/m 0,0 km/h N 16,3 C 20,9 C 0,0 km/h
23.07.2016 22:00 20,4 C 78 % 1016,4 hPa 0,0 l/m 0,0 km/h N 16,4 C 20,4 C 0,0 km/h
23.07.2016 23:00 19,9 C 80 % 1016,7 hPa 0,0 l/m 0,0 km/h N 16,3 C 19,9 C 0,0 km/h
24.07.2016 00:00 18,6 C 82 % 1016,7 hPa 0,0 l/m 0,0 km/h N 15,5 C 18,6 C 0,0 km/h
24.07.2016 01:00 17,7 C 83 % 1016,7 hPa 0,0 l/m 0,0 km/h N-NO 14,8 C 17,7 C 0,0 km/h
24.07.2016 02:00 17,4 C 83 % 1016,8 hPa 0,0 l/m 0,0 km/h N-NO 14,5 C 17,4 C 0,0 km/h
24.07.2016 03:00 18,0 C 83 % 1016,9 hPa 0,0 l/m 0,0 km/h W 15,1 C 18,0 C 0,0 km/h
24.07.2016 04:00 18,4 C 82 % 1016,6 hPa 0,0 l/m 0,0 km/h SO 15,3 C 18,4 C 0,0 km/h
24.07.2016 05:00 17,9 C 83 % 1016,4 hPa 0,0 l/m 0,0 km/h SO 15,0 C 17,9 C 0,0 km/h
24.07.2016 06:00 18,4 C 81 % 1016,8 hPa 0,0 l/m 0,0 km/h SO 15,1 C 18,4 C 0,0 km/h
24.07.2016 07:00 19,8 C 82 % 1016,7 hPa 0,0 l/m 0,0 km/h W 16,6 C 19,8 C 0,0 km/h
24.07.2016 08:00 20,2 C 83 % 1016,8 hPa 0,0 l/m 4,5 km/h N-NO 17,2 C 20,2 C 2,5 km/h
24.07.2016 09:00 24,8 C 75 % 1017,0 hPa 0,0 l/m 5,8 km/h W-NW 20,1 C 24,8 C 3,2 km/h
24.07.2016 10:00 27,4 C 66 % 1016,8 hPa 0,0 l/m 0,0 km/h SO 20,5 C 27,4 C 0,0 km/h
24.07.2016 11:00 28,5 C 62 % 1016,4 hPa 0,0 l/m 0,0 km/h W 20,5 C 28,5 C 0,0 km/h
24.07.2016 12:00 29,2 C 55 % 1016,3 hPa 0,0 l/m 0,0 km/h N 19,2 C 29,2 C 0,0 km/h
24.07.2016 13:00 28,6 C 56 % 1016,2 hPa 0,0 l/m 0,0 km/h NW 18,9 C 28,6 C 0,0 km/h
24.07.2016 14:00 29,0 C 54 % 1016,3 hPa 0,0 l/m 0,0 km/h N-NW 18,7 C 29,0 C 0,0 km/h
24.07.2016 15:00 29,3 C 55 % 1016,3 hPa 0,0 l/m 5,2 km/h W 19,3 C 29,3 C 2,9 km/h
24.07.2016 16:00 30,8 C 50 % 1016,2 hPa 0,0 l/m 0,0 km/h NW 19,1 C 30,8 C 0,0 km/h
24.07.2016 17:00 34,2 C 42 % 1015,8 hPa 0,0 l/m 0,0 km/h W-NW 19,4 C 34,2 C 0,0 km/h
24.07.2016 18:00 33,4 C 43 % 1015,8 hPa 0,0 l/m 0,0 km/h N 19,1 C 33,4 C 0,0 km/h
24.07.2016 19:00 25,5 C 58 % 1016,2 hPa 0,0 l/m 0,0 km/h N 16,6 C 25,5 C 0,0 km/h
24.07.2016 20:00 22,9 C 66 % 1016,3 hPa 0,0 l/m 0,0 km/h N-NO 16,2 C 22,9 C 0,0 km/h
24.07.2016 21:00 19,6 C 74 % 1016,7 hPa 0,0 l/m 0,0 km/h N-NO 14,8 C 19,6 C 0,0 km/h
24.07.2016 22:00 18,7 C 79 % 1017,4 hPa 0,0 l/m 0,0 km/h N-NO 15,0 C 18,7 C 0,0 km/h
24.07.2016 23:00 18,4 C 81 % 1017,5 hPa 0,0 l/m 0,0 km/h N-NO 15,1 C 18,4 C 0,0 km/h
Min-Datum _ 18.07.16 20.07.16 20.07.16 - 18.07.16 - 18.07.16 18.07.16 18.07.16
_ Min-Zeit 05:56 16:56 18:56 - 00:56 - 05:56 02:56 00:56
Minimum _ 14,9 C 26 % 1010,5 hPa - 0,0 km/h - 12,0 C 14,5 C 0,0 km/h
Max-Datum _ 20.07.16 18.07.16 18.07.16 22.07.16 23.07.16 - 21.07.16 20.07.16 23.07.16
_ Max-Zeit 17:56 06:56 06:56 17:56 15:56 - 08:56 17:56 15:56
Maximum _ 40,4 C 84 % 1019,6 hPa 5,2 l/m 24,0 km/h
W-NW
- 21,4 C 40,4 C 13,3 km/h
W-NW
Durchschnitt _ 24,8 C 65 % 1015,1 hPa #7,8 l/m 1,5 km/h N 17,1 C 24,7 C 0,9 km/h
www.sexauwetter.de